| time (UTC) | temp C | wind direction | speed KPH | gust KPH | rain 1hr cm | rain 24hr cm | rain mn cm | humidity % | barometer mb |
| 20260906220622 | 37 | 163 | 14.5 | 17.7 | 0.00 | 0.00 | 0.00 | 40 | 1014.0 |
| 20260906220118 | 37 | 153 | 9.7 | 12.9 | 0.00 | 0.00 | 0.00 | 40 | 1014.0 |
| 20260906215616 | 37 | 167 | 9.7 | 12.9 | 0.00 | 0.00 | 0.00 | 40 | 1014.0 |
| 20260906215115 | 37 | 163 | 6.4 | 6.4 | 0.00 | 0.00 | 0.00 | 40 | 1014.0 |
| 20260906214614 | 37 | 163 | 9.7 | 12.9 | 0.00 | 0.00 | 0.00 | 40 | 1014.1 |
| 20260906214109 | 37 | 118 | 6.4 | 9.7 | 0.00 | 0.00 | 0.00 | 40 | 1014.1 |
| 20260906213609 | 37 | 135 | 8.0 | 11.3 | 0.00 | 0.00 | 0.00 | 40 | 1014.4 |
| 20260906213103 | 37 | 135 | 8.0 | 12.9 | 0.00 | 0.00 | 0.00 | 39 | 1014.3 |
| 20260906212601 | 37 | 166 | 8.0 | 11.3 | 0.00 | 0.00 | 0.00 | 39 | 1014.2 |
| 20260906212056 | 37 | 165 | 11.3 | 17.7 | 0.00 | 0.00 | 0.00 | 39 | 1014.3 |
| 20260906211556 | 38 | 179 | 14.5 | 16.1 | 0.00 | 0.00 | 0.00 | 39 | 1014.5 |
| 20260906211051 | 37 | 45 | 3.2 | 3.2 | 0.00 | 0.00 | 0.00 | 39 | 1014.5 |
| 20260906210546 | 37 | 131 | 6.4 | 11.3 | 0.00 | 0.00 | 0.00 | 39 | 1014.6 |
| 20260906210041 | 37 | 210 | 6.4 | 9.7 | 0.00 | 0.00 | 0.00 | 40 | 1014.9 |
| 20260906205537 | 38 | 174 | 11.3 | 14.5 | 0.00 | 0.00 | 0.00 | 38 | 1014.8 |
| 20260906205033 | 38 | 46 | 1.6 | 9.7 | 0.00 | 0.00 | 0.00 | 39 | 1014.9 |
| 20260906204532 | 38 | 159 | 8.0 | 9.7 | 0.00 | 0.00 | 0.00 | 39 | 1015.1 |
| 20260906204032 | 38 | 148 | 11.3 | 14.5 | 0.00 | 0.00 | 0.00 | 39 | 1015.1 |
| 20260906203532 | 38 | 161 | 3.2 | 4.8 | 0.00 | 0.00 | 0.00 | 38 | 1015.0 |
| 20260906203027 | 37 | 108 | 8.0 | 11.3 | 0.00 | 0.00 | 0.00 | 39 | 1015.2 |
| 20260906202524 | 37 | 195 | 3.2 | 4.8 | 0.00 | 0.00 | 0.00 | 40 | 1014.9 |
| 20260906202019 | 38 | 138 | 1.6 | 3.2 | 0.00 | 0.00 | 0.00 | 39 | 1015.2 |
| 20260906201518 | 37 | 171 | 4.8 | 4.8 | 0.00 | 0.00 | 0.00 | 40 | 1015.1 |
| 20260906201018 | 38 | 156 | 3.2 | 9.7 | 0.00 | 0.00 | 0.00 | 39 | 1015.2 |
| 20260906200514 | 37 | 34 | 1.6 | 1.6 | 0.00 | 0.00 | 0.00 | 39 | 1015.2 |
| 20260906200010 | 38 | 168 | 11.3 | 17.7 | 0.00 | 0.00 | 0.00 | 38 | 1015.4 |
| 20260906195505 | 36 | 153 | 1.6 | 1.6 | 0.00 | 0.00 | 0.00 | 40 | 1015.6 |
| 20260906195001 | 37 | 155 | 3.2 | 3.2 | 0.00 | 0.00 | 0.00 | 40 | 1015.6 |
| 20260906194457 | 38 | 244 | 4.8 | 6.4 | 0.00 | 0.00 | 0.00 | 40 | 1015.5 |
| 20260906193952 | 38 | 154 | 9.7 | 16.1 | 0.00 | 0.00 | 0.00 | 38 | 1015.7 |
| 20260906193447 | 37 | 137 | 6.4 | 9.7 | 0.00 | 0.00 | 0.00 | 40 | 1015.7 |
| 20260906192942 | 38 | 117 | 11.3 | 16.1 | 0.00 | 0.00 | 0.00 | 40 | 1015.9 |
| 20260906192437 | 37 | 91 | 4.8 | 6.4 | 0.00 | 0.00 | 0.00 | 40 | 1015.8 |
| 20260906191936 | 37 | 156 | 3.2 | 4.8 | 0.00 | 0.00 | 0.00 | 40 | 1016.0 |
| 20260906191431 | 36 | 81 | 3.2 | 3.2 | 0.00 | 0.00 | 0.00 | 41 | 1015.7 |
| 20260906190931 | 37 | 175 | 11.3 | 14.5 | 0.00 | 0.00 | 0.00 | 41 | 1016.1 |
| 20260906190429 | 37 | 182 | 8.0 | 9.7 | 0.00 | 0.00 | 0.00 | 41 | 1016.2 |
| 20260906185924 | 36 | 154 | 11.3 | 14.5 | 0.00 | 0.00 | 0.00 | 41 | 1016.0 |
| 20260906185424 | 36 | 152 | 6.4 | 11.3 | 0.00 | 0.00 | 0.00 | 41 | 1016.2 |
| 20260906184923 | 37 | 158 | 8.0 | 11.3 | 0.00 | 0.00 | 0.00 | 40 | 1016.2 |
| 20260906184418 | 37 | 161 | 12.9 | 17.7 | 0.00 | 0.00 | 0.00 | 39 | 1016.2 |
| 20260906183914 | 38 | 62 | 1.6 | 6.4 | 0.00 | 0.00 | 0.00 | 39 | 1016.4 |
| 20260906183410 | 37 | 158 | 3.2 | 3.2 | 0.00 | 0.00 | 0.00 | 38 | 1016.3 |
| 20260906182905 | 37 | 110 | 3.2 | 3.2 | 0.00 | 0.00 | 0.00 | 39 | 1016.4 |
| 20260906182400 | 36 | 160 | 3.2 | 6.4 | 0.00 | 0.00 | 0.00 | 42 | 1016.5 |
| 20260906181855 | 37 | 146 | 9.7 | 12.9 | 0.00 | 0.00 | 0.00 | 41 | 1016.7 |
| 20260906181352 | 36 | 193 | 1.6 | 3.2 | 0.00 | 0.00 | 0.00 | 42 | 1016.6 |
| 20260906180847 | 36 | 177 | 6.4 | 9.7 | 0.00 | 0.00 | 0.00 | 42 | 1016.9 |
| 20260906180342 | 36 | 51 | 4.8 | 6.4 | 0.00 | 0.00 | 0.00 | 40 | 1016.8 |
| 20260906175839 | 36 | 163 | 8.0 | 11.3 | 0.00 | 0.00 | 0.00 | 42 | 1016.8 |
| 20260906175334 | 37 | 176 | 3.2 | 4.8 | 0.00 | 0.00 | 0.00 | 40 | 1017.1 |
| 20260906174834 | 36 | 140 | 9.7 | 11.3 | 0.00 | 0.00 | 0.00 | 43 | 1017.2 |
| 20260906174333 | 36 | 142 | 8.0 | 12.9 | 0.00 | 0.00 | 0.00 | 43 | 1017.2 |
| 20260906173828 | 36 | 133 | 4.8 | 9.7 | 0.00 | 0.00 | 0.00 | 43 | 1017.3 |
| 20260906173324 | 37 | 167 | 12.9 | 14.5 | 0.00 | 0.00 | 0.00 | 41 | 1017.3 |
| 20260906172823 | 36 | 142 | 6.4 | 11.3 | 0.00 | 0.00 | 0.00 | 43 | 1017.3 |
| 20260906172319 | 36 | 186 | 6.4 | 6.4 | 0.00 | 0.00 | 0.00 | 41 | 1017.3 |
| 20260906171813 | 36 | 136 | 4.8 | 4.8 | 0.00 | 0.00 | 0.00 | 43 | 1017.4 |
| 20260906171308 | 36 | 156 | 4.8 | 4.8 | 0.00 | 0.00 | 0.00 | 43 | 1017.6 |
| 20260906170804 | 35 | 160 | 3.2 | 4.8 | 0.00 | 0.00 | 0.00 | 43 | 1017.8 |
| 20260906170301 | 36 | 102 | 6.4 | 9.7 | 0.00 | 0.00 | 0.00 | 43 | 1017.5 |
| 20260906165756 | 36 | 29 | 1.6 | 3.2 | 0.00 | 0.00 | 0.00 | 42 | 1017.8 |
| 20260906165256 | 36 | 127 | 1.6 | 3.2 | 0.00 | 0.00 | 0.00 | 43 | 1017.6 |
| 20260906164755 | 36 | 154 | 9.7 | 12.9 | 0.00 | 0.00 | 0.00 | 42 | 1017.7 |
| 20260906164250 | 35 | 135 | 1.6 | 1.6 | 0.00 | 0.00 | 0.00 | 44 | 1017.8 |
| 20260906163746 | 35 | 191 | 3.2 | 3.2 | 0.00 | 0.00 | 0.00 | 45 | 1017.8 |
| 20260906163242 | 36 | 37 | 1.6 | 4.8 | 0.00 | 0.00 | 0.00 | 42 | 1017.5 |
| 20260906162739 | 35 | 126 | 1.6 | 4.8 | 0.00 | 0.00 | 0.00 | 43 | 1018.0 |
| 20260906162233 | 35 | 173 | 6.4 | 9.7 | 0.00 | 0.00 | 0.00 | 45 | 1017.9 |
| 20260906161733 | 35 | 191 | 4.8 | 4.8 | 0.00 | 0.00 | 0.00 | 45 | 1017.9 |
| 20260906161232 | 35 | 170 | 6.4 | 6.4 | 0.00 | 0.00 | 0.00 | 45 | 1017.8 |
| 20260906160732 | 35 | 140 | 1.6 | 1.6 | 0.00 | 0.00 | 0.00 | 45 | 1017.8 |
| 20260906160231 | 35 | 133 | 0.0 | 1.6 | 0.00 | 0.00 | 0.00 | 45 | 1017.7 |
| 20260906155729 | 35 | 189 | 1.6 | 3.2 | 0.00 | 0.00 | 0.00 | 45 | 1017.6 |
| 20260906155224 | 34 | 194 | 0.0 | 1.6 | 0.00 | 0.00 | 0.00 | 47 | 1017.8 |
| 20260906154720 | 35 | 104 | 3.2 | 3.2 | 0.00 | 0.00 | 0.00 | 47 | 1017.9 |
| 20260906154215 | 35 | 150 | 4.8 | 6.4 | 0.00 | 0.00 | 0.00 | 48 | 1017.8 |
| 20260906153712 | 34 | 185 | 6.4 | 6.4 | 0.00 | 0.00 | 0.00 | 49 | 1017.8 |
| 20260906153208 | 35 | 156 | 1.6 | 1.6 | 0.00 | 0.00 | 0.00 | 50 | 1017.7 |
| 20260906152703 | 34 | 169 | 3.2 | 4.8 | 0.00 | 0.00 | 0.00 | 51 | 1017.7 |
| 20260906152156 | 34 | 165 | 3.2 | 4.8 | 0.00 | 0.00 | 0.00 | 51 | 1017.7 |
| 20260906151651 | 33 | 95 | 1.6 | 1.6 | 0.00 | 0.00 | 0.00 | 52 | 1017.7 |
| 20260906151147 | 33 | 353 | 4.8 | 4.8 | 0.00 | 0.00 | 0.00 | 55 | 1017.5 |
| 20260906150642 | 32 | 168 | 3.2 | 4.8 | 0.00 | 0.00 | 0.00 | 54 | 1017.8 |
| 20260906150137 | 32 | 116 | 3.2 | 3.2 | 0.00 | 0.00 | 0.00 | 55 | 1017.7 |
| 20260906145636 | 32 | 87 | 0.0 | 1.6 | 0.00 | 0.00 | 0.00 | 57 | 1017.6 |
| 20260906145131 | 32 | 163 | 3.2 | 3.2 | 0.00 | 0.00 | 0.00 | 58 | 1017.7 |
| 20260906144631 | 32 | 96 | 0.0 | 0.0 | 0.00 | 0.00 | 0.00 | 58 | 1017.7 |
| 20260906144126 | 32 | 159 | 0.0 | 0.0 | 0.00 | 0.00 | 0.00 | 58 | 1017.8 |
| 20260906143626 | 31 | 179 | 1.6 | 3.2 | 0.00 | 0.00 | 0.00 | 60 | 1017.8 |
| 20260906143124 | 31 | 172 | 0.0 | 0.0 | 0.00 | 0.00 | 0.00 | 60 | 1017.7 |
| 20260906142622 | 31 | 172 | 0.0 | 0.0 | 0.00 | 0.00 | 0.00 | 60 | 1017.7 |
| 20260906142118 | -17 | 0.0 | 0.0 | 0.00 | 0.00 | 0.00 | 1017.6 | ||
| 20260906141617 | -17 | 0.0 | 0.0 | 0.00 | 0.00 | 0.00 | 1017.6 | ||
| 20260906141112 | 30 | 138 | 3.2 | 4.8 | 0.00 | 0.00 | 0.00 | 66 | 1017.7 |
| 20260906140611 | 30 | 138 | 3.2 | 4.8 | 0.00 | 0.00 | 0.00 | 66 | 1017.7 |
| 20260906140106 | 29 | 144 | 3.2 | 4.8 | 0.00 | 0.00 | 0.00 | 68 | 1017.6 |
| 20260906135603 | 28 | 160 | 1.6 | 1.6 | 0.00 | 0.00 | 0.00 | 71 | 1017.5 |
| 20260906135059 | 28 | 160 | 1.6 | 1.6 | 0.00 | 0.00 | 0.00 | 71 | 1017.8 |
| 20260906134554 | 27 | 150 | 1.6 | 1.6 | 0.00 | 0.00 | 0.00 | 73 | 1017.7 |
| 20260906134054 | 26 | 164 | 0.0 | 0.0 | 0.00 | 0.00 | 0.00 | 75 | 1017.5 |
| 20260906133550 | 26 | 164 | 0.0 | 0.0 | 0.00 | 0.00 | 0.00 | 75 | 1017.3 |
| 20260906133045 | 26 | 166 | 0.0 | 0.0 | 0.00 | 0.00 | 0.00 | 77 | 1017.6 |
| 20260906132540 | 26 | 174 | 1.6 | 1.6 | 0.00 | 0.00 | 0.00 | 78 | 1017.4 |
| 20260906132036 | 25 | 171 | 0.0 | 0.0 | 0.00 | 0.00 | 0.00 | 78 | 1017.4 |
| 20260906131531 | 25 | 165 | 0.0 | 0.0 | 0.00 | 0.00 | 0.00 | 79 | 1017.3 |
| 20260906131026 | 25 | 171 | 0.0 | 0.0 | 0.00 | 0.00 | 0.00 | 80 | 1017.3 |
| 20260906130526 | 24 | 172 | 0.0 | 0.0 | 0.00 | 0.00 | 0.00 | 81 | 1017.3 |
| 20260906130021 | 24 | 175 | 0.0 | 0.0 | 0.00 | 0.00 | 0.00 | 81 | 1017.2 |
| 20260906125518 | 23 | 173 | 0.0 | 0.0 | 0.00 | 0.00 | 0.00 | 82 | 1017.2 |
| 20260906125013 | 23 | 170 | 0.0 | 0.0 | 0.00 | 0.00 | 0.00 | 82 | 1017.2 |
| 20260906124508 | 23 | 176 | 0.0 | 0.0 | 0.00 | 0.00 | 0.00 | 83 | 1017.3 |
| 20260906124004 | -17 | 0.0 | 0.0 | 0.00 | 0.00 | 0.00 | 1017.2 | ||
| 20260906123502 | -17 | 0.0 | 0.0 | 0.00 | 0.00 | 0.00 | 1017.1 | ||
| 20260906123003 | -17 | 0.0 | 0.0 | 0.00 | 0.00 | 0.00 | 1017.1 | ||
| 20260906122457 | -17 | 0.0 | 0.0 | 0.00 | 0.00 | 0.00 | 1016.9 | ||
| 20260906121954 | 23 | 190 | 0.0 | 0.0 | 0.00 | 0.00 | 0.00 | 84 | 1017.3 |
| 20260906121450 | 23 | 190 | 0.0 | 0.0 | 0.00 | 0.00 | 0.00 | 84 | 1017.1 |
| 20260906120946 | 23 | 190 | 0.0 | 0.0 | 0.00 | 0.00 | 0.00 | 83 | 1017.0 |
| 20260906120441 | 23 | 190 | 0.0 | 0.0 | 0.00 | 0.00 | 0.00 | 83 | 1016.9 |
| 20260906115937 | 23 | 185 | 0.0 | 0.0 | 0.00 | 0.00 | 0.00 | 83 | 1016.9 |
| 20260906115432 | 23 | 175 | 0.0 | 0.0 | 0.00 | 0.00 | 0.00 | 83 | 1016.8 |
| 20260906114932 | 23 | 174 | 0.0 | 0.0 | 0.00 | 0.00 | 0.00 | 83 | 1016.8 |
| 20260906114426 | 23 | 183 | 0.0 | 0.0 | 0.00 | 0.00 | 0.00 | 82 | 1016.9 |
| 20260906113922 | 23 | 176 | 0.0 | 0.0 | 0.00 | 0.00 | 0.00 | 82 | 1016.7 |
| 20260906113421 | 23 | 188 | 0.0 | 0.0 | 0.00 | 0.00 | 0.00 | 81 | 1016.6 |
| 20260906112917 | 23 | 188 | 0.0 | 0.0 | 0.00 | 0.00 | 0.00 | 81 | 1016.6 |
| 20260906112412 | 23 | 188 | 0.0 | 0.0 | 0.00 | 0.00 | 0.00 | 81 | 1016.6 |
| 20260906111908 | 23 | 183 | 0.0 | 0.0 | 0.00 | 0.00 | 0.00 | 81 | 1016.6 |
| 20260906111407 | 23 | 183 | 0.0 | 0.0 | 0.00 | 0.00 | 0.00 | 81 | 1016.8 |
| 20260906110902 | 23 | 181 | 0.0 | 0.0 | 0.00 | 0.00 | 0.00 | 81 | 1016.6 |
| 20260906110357 | 23 | 176 | 0.0 | 0.0 | 0.00 | 0.00 | 0.00 | 81 | 1016.6 |
| 20260906105856 | 23 | 171 | 0.0 | 0.0 | 0.00 | 0.00 | 0.00 | 81 | 1016.5 |
| 20260906105352 | 24 | 167 | 0.0 | 0.0 | 0.00 | 0.00 | 0.00 | 80 | 1016.4 |
| 20260906104848 | 25 | 168 | 0.0 | 0.0 | 0.00 | 0.00 | 0.00 | 79 | 1016.2 |
| 20260906104346 | 25 | 176 | 0.0 | 0.0 | 0.00 | 0.00 | 0.00 | 79 | 1016.4 |
| 20260906103845 | 25 | 180 | 0.0 | 0.0 | 0.00 | 0.00 | 0.00 | 79 | 1016.2 |
| 20260906103343 | 25 | 192 | 0.0 | 0.0 | 0.00 | 0.00 | 0.00 | 78 | 1016.2 |
| 20260906102840 | 25 | 182 | 0.0 | 0.0 | 0.00 | 0.00 | 0.00 | 78 | 1016.0 |
| 20260906102338 | 25 | 181 | 0.0 | 0.0 | 0.00 | 0.00 | 0.00 | 78 | 1015.9 |
| 20260906101834 | 25 | 189 | 0.0 | 0.0 | 0.00 | 0.00 | 0.00 | 78 | 1015.9 |
| 20260906101329 | 25 | 178 | 0.0 | 0.0 | 0.00 | 0.00 | 0.00 | 78 | 1016.0 |
| 20260906100825 | 25 | 169 | 0.0 | 0.0 | 0.00 | 0.00 | 0.00 | 77 | 1016.1 |
| 20260906100323 | 25 | 163 | 0.0 | 0.0 | 0.00 | 0.00 | 0.00 | 76 | 1015.9 |
| 20260906095819 | 26 | 182 | 0.0 | 0.0 | 0.00 | 0.00 | 0.00 | 75 | 1015.9 |
| 20260906095314 | 26 | 181 | 0.0 | 1.6 | 0.00 | 0.00 | 0.00 | 75 | 1015.9 |
| 20260906094813 | 26 | 175 | 1.6 | 1.6 | 0.00 | 0.00 | 0.00 | 75 | 1015.8 |
| 20260906094308 | 26 | 192 | 1.6 | 1.6 | 0.00 | 0.00 | 0.00 | 75 | 1016.0 |
| 20260906093805 | 26 | 183 | 0.0 | 0.0 | 0.00 | 0.00 | 0.00 | 75 | 1015.8 |
| 20260906093301 | 26 | 179 | 1.6 | 1.6 | 0.00 | 0.00 | 0.00 | 75 | 1015.7 |
| 20260906092756 | 26 | 201 | 3.2 | 3.2 | 0.00 | 0.00 | 0.00 | 75 | 1015.7 |
| 20260906092256 | 26 | 176 | 0.0 | 0.0 | 0.00 | 0.00 | 0.00 | 74 | 1015.8 |
| 20260906091751 | 26 | 170 | 1.6 | 1.6 | 0.00 | 0.00 | 0.00 | 75 | 1016.0 |
| 20260906091247 | 25 | 179 | 0.0 | 0.0 | 0.00 | 0.00 | 0.00 | 76 | 1015.9 |
| 20260906090744 | 25 | 184 | 0.0 | 0.0 | 0.00 | 0.00 | 0.00 | 76 | 1015.8 |
| 20260906090243 | 26 | 175 | 0.0 | 0.0 | 0.00 | 0.00 | 0.00 | 75 | 1016.0 |
| 20260906085742 | 26 | 166 | 0.0 | 0.0 | 0.00 | 0.00 | 0.00 | 75 | 1015.8 |
| 20260906085241 | 26 | 179 | 0.0 | 0.0 | 0.00 | 0.00 | 0.00 | 74 | 1015.9 |
| 20260906084736 | 26 | 185 | 0.0 | 0.0 | 0.00 | 0.00 | 0.00 | 74 | 1015.8 |
| 20260906084236 | 26 | 163 | 1.6 | 1.6 | 0.00 | 0.00 | 0.00 | 73 | 1015.7 |
| 20260906083731 | 26 | 197 | 1.6 | 1.6 | 0.00 | 0.00 | 0.00 | 73 | 1015.5 |
| 20260906083226 | 26 | 172 | 1.6 | 1.6 | 0.00 | 0.00 | 0.00 | 73 | 1015.6 |
| 20260906082722 | 26 | 190 | 3.2 | 3.2 | 0.00 | 0.00 | 0.00 | 73 | 1015.6 |
| 20260906082217 | 26 | 173 | 3.2 | 3.2 | 0.00 | 0.00 | 0.00 | 72 | 1015.5 |
| 20260906081713 | 26 | 186 | 1.6 | 3.2 | 0.00 | 0.00 | 0.00 | 72 | 1015.6 |
| 20260906081207 | 26 | 168 | 1.6 | 1.6 | 0.00 | 0.00 | 0.00 | 72 | 1015.7 |
| 20260906080704 | 26 | 153 | 3.2 | 4.8 | 0.00 | 0.00 | 0.00 | 72 | 1015.4 |
| 20260906080200 | 27 | 199 | 4.8 | 4.8 | 0.00 | 0.00 | 0.00 | 71 | 1015.5 |
| 20260906075659 | 27 | 214 | 1.6 | 3.2 | 0.00 | 0.00 | 0.00 | 71 | 1015.5 |
| 20260906075148 | 27 | 186 | 4.8 | 4.8 | 0.00 | 0.00 | 0.00 | 71 | 1015.7 |
| 20260906074643 | 27 | 177 | 3.2 | 4.8 | 0.00 | 0.00 | 0.00 | 71 | 1015.5 |
| 20260906074142 | 27 | 168 | 3.2 | 4.8 | 0.00 | 0.00 | 0.00 | 70 | 1015.4 |
| 20260906073637 | 27 | 191 | 3.2 | 3.2 | 0.00 | 0.00 | 0.00 | 70 | 1015.5 |
| 20260906073133 | 27 | 166 | 4.8 | 4.8 | 0.00 | 0.00 | 0.00 | 70 | 1015.4 |
| 20260906072628 | 27 | 140 | 3.2 | 3.2 | 0.00 | 0.00 | 0.00 | 70 | 1015.4 |
| 20260906072125 | 27 | 186 | 3.2 | 3.2 | 0.00 | 0.00 | 0.00 | 69 | 1015.4 |
| 20260906071621 | 27 | 196 | 3.2 | 3.2 | 0.00 | 0.00 | 0.00 | 69 | 1015.5 |
| 20260906071121 | 27 | 189 | 4.8 | 4.8 | 0.00 | 0.00 | 0.00 | 68 | 1015.7 |
| 20260906070617 | 27 | 183 | 1.6 | 3.2 | 0.00 | 0.00 | 0.00 | 68 | 1015.6 |
| 20260906070113 | 27 | 173 | 3.2 | 3.2 | 0.00 | 0.00 | 0.00 | 67 | 1015.6 |
| 20260906065612 | 28 | 169 | 4.8 | 4.8 | 0.00 | 0.00 | 0.00 | 67 | 1015.6 |
| 20260906065108 | 28 | 174 | 3.2 | 4.8 | 0.00 | 0.00 | 0.00 | 67 | 1015.7 |
| 20260906064603 | 28 | 177 | 3.2 | 4.8 | 0.00 | 0.00 | 0.00 | 67 | 1015.7 |
| 20260906064058 | 27 | 175 | 6.4 | 11.3 | 0.00 | 0.00 | 0.00 | 67 | 1016.0 |
| 20260906063553 | 27 | 178 | 6.4 | 6.4 | 0.00 | 0.00 | 0.00 | 68 | 1015.8 |
| 20260906063044 | 27 | 202 | 1.6 | 3.2 | 0.00 | 0.00 | 0.00 | 68 | 1015.8 |
| 20260906062539 | 27 | 213 | 4.8 | 4.8 | 0.00 | 0.00 | 0.00 | 68 | 1015.9 |
| 20260906062038 | 27 | 187 | 1.6 | 3.2 | 0.00 | 0.00 | 0.00 | 68 | 1015.9 |
| 20260906061535 | 27 | 225 | 3.2 | 4.8 | 0.00 | 0.00 | 0.00 | 67 | 1015.7 |
| 20260906061033 | 27 | 177 | 3.2 | 3.2 | 0.00 | 0.00 | 0.00 | 66 | 1015.9 |
| 20260906060530 | 27 | 179 | 4.8 | 4.8 | 0.00 | 0.00 | 0.00 | 66 | 1016.0 |
| 20260906060027 | 28 | 168 | 3.2 | 3.2 | 0.00 | 0.00 | 0.00 | 66 | 1015.9 |
| 20260906055524 | 27 | 178 | 1.6 | 3.2 | 0.00 | 0.00 | 0.00 | 66 | 1015.8 |
| 20260906055019 | 27 | 198 | 3.2 | 3.2 | 0.00 | 0.00 | 0.00 | 66 | 1015.9 |
| 20260906054519 | 28 | 185 | 3.2 | 3.2 | 0.00 | 0.00 | 0.00 | 65 | 1015.7 |
| 20260906054014 | 28 | 153 | 3.2 | 3.2 | 0.00 | 0.00 | 0.00 | 65 | 1015.8 |
| 20260906053510 | 28 | 154 | 3.2 | 4.8 | 0.00 | 0.00 | 0.00 | 65 | 1015.8 |
| 20260906053006 | 28 | 204 | 1.6 | 1.6 | 0.00 | 0.00 | 0.00 | 63 | 1015.7 |
| 20260906052501 | 28 | 182 | 1.6 | 3.2 | 0.00 | 0.00 | 0.00 | 63 | 1015.8 |
| 20260906051958 | 28 | 186 | 1.6 | 3.2 | 0.00 | 0.00 | 0.00 | 63 | 1015.8 |
| 20260906051453 | 28 | 172 | 1.6 | 1.6 | 0.00 | 0.00 | 0.00 | 62 | 1015.7 |
| 20260906050949 | 29 | 163 | 3.2 | 4.8 | 0.00 | 0.00 | 0.00 | 62 | 1015.9 |
| 20260906050448 | 29 | 208 | 1.6 | 3.2 | 0.00 | 0.00 | 0.00 | 61 | 1015.8 |
| 20260906045947 | 29 | 167 | 1.6 | 3.2 | 0.00 | 0.00 | 0.00 | 61 | 1016.1 |
| 20260906045446 | 29 | 188 | 1.6 | 3.2 | 0.00 | 0.00 | 0.00 | 60 | 1015.8 |
| 20260906044942 | 30 | 187 | 4.8 | 6.4 | 0.00 | 0.00 | 0.00 | 60 | 1015.9 |
| 20260906044437 | 30 | 190 | 3.2 | 3.2 | 0.00 | 0.00 | 0.00 | 59 | 1016.0 |
| 20260906043933 | 30 | 206 | 6.4 | 9.7 | 0.00 | 0.00 | 0.00 | 58 | 1016.0 |
| 20260906043429 | 30 | 182 | 6.4 | 11.3 | 0.00 | 0.00 | 0.00 | 58 | 1016.1 |
| 20260906042924 | 30 | 162 | 11.3 | 14.5 | 0.00 | 0.00 | 0.00 | 58 | 1016.0 |
| 20260906042423 | 30 | 169 | 8.0 | 9.7 | 0.00 | 0.00 | 0.00 | 56 | 1015.8 |
| 20260906041918 | 30 | 120 | 8.0 | 11.3 | 0.00 | 0.00 | 0.00 | 56 | 1015.9 |
| 20260906041415 | 30 | 144 | 6.4 | 6.4 | 0.00 | 0.00 | 0.00 | 56 | 1016.0 |
| 20260906040914 | 28 | 163 | 4.8 | 6.4 | 0.00 | 0.00 | 0.00 | 58 | 1016.1 |
| 20260906040410 | 27 | 180 | 1.6 | 1.6 | 0.00 | 0.00 | 0.00 | 61 | 1016.1 |
| 20260906035905 | 27 | 172 | 1.6 | 1.6 | 0.00 | 0.00 | 0.00 | 61 | 1015.8 |
| 20260906035400 | 27 | 179 | 0.0 | 0.0 | 0.00 | 0.00 | 0.00 | 60 | 1015.8 |
| 20260906034856 | 27 | 182 | 0.0 | 0.0 | 0.00 | 0.00 | 0.00 | 61 | 1015.8 |
| 20260906034355 | 27 | 190 | 0.0 | 0.0 | 0.00 | 0.00 | 0.00 | 60 | 1015.9 |
| 20260906033852 | 27 | 180 | 0.0 | 0.0 | 0.00 | 0.00 | 0.00 | 60 | 1015.8 |
| 20260906033351 | 27 | 179 | 0.0 | 0.0 | 0.00 | 0.00 | 0.00 | 59 | 1015.9 |
| 20260906032847 | 28 | 174 | 0.0 | 0.0 | 0.00 | 0.00 | 0.00 | 59 | 1015.9 |
| 20260906032343 | 28 | 178 | 0.0 | 0.0 | 0.00 | 0.00 | 0.00 | 59 | 1015.8 |
| 20260906031838 | 28 | 179 | 0.0 | 0.0 | 0.00 | 0.00 | 0.00 | 58 | 1015.6 |
| 20260906031333 | 28 | 181 | 0.0 | 0.0 | 0.00 | 0.00 | 0.00 | 58 | 1015.5 |
| 20260906030833 | 28 | 179 | 0.0 | 0.0 | 0.00 | 0.00 | 0.00 | 58 | 1015.6 |
| 20260906030329 | 28 | 172 | 0.0 | 0.0 | 0.00 | 0.00 | 0.00 | 58 | 1015.7 |
| 20260906025829 | 28 | 172 | 0.0 | 0.0 | 0.00 | 0.00 | 0.00 | 57 | 1015.3 |
| 20260906025323 | 28 | 178 | 0.0 | 0.0 | 0.00 | 0.00 | 0.00 | 56 | 1015.4 |
| 20260906024822 | 29 | 174 | 0.0 | 0.0 | 0.00 | 0.00 | 0.00 | 55 | 1015.7 |
| 20260906024321 | 30 | 175 | 0.0 | 0.0 | 0.00 | 0.00 | 0.00 | 55 | 1015.4 |
| 20260906023817 | 30 | 203 | 0.0 | 1.6 | 0.00 | 0.00 | 0.00 | 54 | 1015.4 |
| 20260906023312 | 30 | 184 | 0.0 | 0.0 | 0.00 | 0.00 | 0.00 | 54 | 1015.5 |
| 20260906022808 | 30 | 185 | 0.0 | 0.0 | 0.00 | 0.00 | 0.00 | 54 | 1015.4 |
| 20260906022306 | 30 | 181 | 0.0 | 0.0 | 0.00 | 0.00 | 0.00 | 53 | 1015.1 |
| 20260906021759 | 30 | 181 | 0.0 | 0.0 | 0.00 | 0.00 | 0.00 | 53 | 1015.1 |
| 20260906021257 | 30 | 185 | 0.0 | 0.0 | 0.00 | 0.00 | 0.00 | 52 | 1015.2 |
| 20260906020752 | 30 | 175 | 0.0 | 1.6 | 0.00 | 0.00 | 0.00 | 52 | 1015.1 |
| 20260906020252 | 30 | 189 | 0.0 | 1.6 | 0.00 | 0.00 | 0.00 | 52 | 1015.0 |
| 20260906015752 | 30 | 175 | 3.2 | 3.2 | 0.00 | 0.00 | 0.00 | 52 | 1014.8 |
| 20260906015250 | 31 | 192 | 1.6 | 1.6 | 0.00 | 0.00 | 0.00 | 52 | 1014.6 |
| 20260906014745 | 31 | 212 | 1.6 | 1.6 | 0.00 | 0.00 | 0.00 | 51 | 1014.8 |
| 20260906014241 | 31 | 176 | 1.6 | 1.6 | 0.00 | 0.00 | 0.00 | 51 | 1014.8 |
| 20260906013737 | 31 | 182 | 0.0 | 0.0 | 0.00 | 0.00 | 0.00 | 50 | 1014.6 |
| 20260906013237 | 31 | 171 | 1.6 | 1.6 | 0.00 | 0.00 | 0.00 | 50 | 1014.3 |
| 20260906012732 | 31 | 181 | 1.6 | 1.6 | 0.00 | 0.00 | 0.00 | 49 | 1014.4 |
| 20260906012227 | 32 | 178 | 1.6 | 1.6 | 0.00 | 0.00 | 0.00 | 49 | 1014.4 |
| 20260906011723 | 32 | 170 | 0.0 | 1.6 | 0.00 | 0.00 | 0.00 | 49 | 1014.2 |
| 20260906011217 | 32 | 157 | 1.6 | 1.6 | 0.00 | 0.00 | 0.00 | 48 | 1014.3 |
| 20260906010713 | 32 | 172 | 0.0 | 0.0 | 0.00 | 0.00 | 0.00 | 48 | 1014.4 |
| 20260906010209 | 32 | 164 | 1.6 | 1.6 | 0.00 | 0.00 | 0.00 | 47 | 1014.2 |
| 20260906005708 | 33 | 158 | 1.6 | 1.6 | 0.00 | 0.00 | 0.00 | 46 | 1014.1 |
| 20260906005203 | 33 | 157 | 1.6 | 1.6 | 0.00 | 0.00 | 0.00 | 46 | 1013.9 |
| 20260906004702 | 33 | 160 | 1.6 | 3.2 | 0.00 | 0.00 | 0.00 | 45 | 1014.1 |
| 20260906004156 | 33 | 154 | 4.8 | 4.8 | 0.00 | 0.00 | 0.00 | 43 | 1014.1 |
| 20260906003651 | 33 | 143 | 1.6 | 3.2 | 0.00 | 0.00 | 0.00 | 43 | 1014.1 |
| 20260906003147 | 34 | 176 | 0.0 | 1.6 | 0.00 | 0.00 | 0.00 | 43 | 1014.2 |
| 20260906002642 | 34 | 170 | 0.0 | 1.6 | 0.00 | 0.00 | 0.00 | 43 | 1013.9 |
| 20260906002136 | 35 | 165 | 1.6 | 3.2 | 0.00 | 0.00 | 0.00 | 42 | 1014.0 |
| 20260906001632 | 35 | 152 | 3.2 | 4.8 | 0.00 | 0.00 | 0.00 | 41 | 1014.2 |
| 20260906001132 | 35 | 159 | 3.2 | 3.2 | 0.00 | 0.00 | 0.00 | 42 | 1013.9 |
| 20260906000627 | 35 | 177 | 3.2 | 3.2 | 0.00 | 0.00 | 0.00 | 41 | 1014.0 |
| 20260906000123 | 35 | 163 | 9.7 | 11.3 | 0.00 | 0.00 | 0.00 | 40 | 1014.1 |
| 20260905235621 | 35 | 138 | 4.8 | 4.8 | 0.00 | 0.00 | 0.00 | 40 | 1014.0 |
| 20260905235117 | 35 | 155 | 3.2 | 4.8 | 0.00 | 0.00 | 0.00 | 40 | 1013.9 |
| 20260905234612 | 35 | 182 | 3.2 | 4.8 | 0.00 | 0.00 | 0.00 | 40 | 1014.1 |
| 20260905234108 | 36 | 161 | 6.4 | 6.4 | 0.00 | 0.00 | 0.00 | 40 | 1014.0 |
| 20260905233608 | 36 | 133 | 1.6 | 4.8 | 0.00 | 0.00 | 0.00 | 40 | 1013.9 |
| 20260905233102 | 36 | 153 | 0.0 | 1.6 | 0.00 | 0.00 | 0.00 | 39 | 1013.8 |
| 20260905232557 | 36 | 94 | 6.4 | 9.7 | 0.00 | 0.00 | 0.00 | 39 | 1013.8 |
| 20260905232053 | 36 | 154 | 3.2 | 4.8 | 0.00 | 0.00 | 0.00 | 38 | 1013.8 |
| 20260905231548 | 36 | 168 | 3.2 | 3.2 | 0.00 | 0.00 | 0.00 | 38 | 1013.7 |
| 20260905231044 | 36 | 235 | 6.4 | 11.3 | 0.00 | 0.00 | 0.00 | 38 | 1013.8 |
| 20260905230544 | 36 | 186 | 3.2 | 3.2 | 0.00 | 0.00 | 0.00 | 39 | 1013.8 |
| 20260905230043 | 36 | 188 | 1.6 | 3.2 | 0.00 | 0.00 | 0.00 | 38 | 1013.8 |
| 20260905225537 | 36 | 138 | 6.4 | 9.7 | 0.00 | 0.00 | 0.00 | 39 | 1013.7 |
| 20260905225032 | 36 | 165 | 3.2 | 4.8 | 0.00 | 0.00 | 0.00 | 39 | 1013.5 |
| 20260905224526 | 36 | 198 | 6.4 | 6.4 | 0.00 | 0.00 | 0.00 | 39 | 1013.8 |
| 20260905224026 | 36 | 184 | 8.0 | 9.7 | 0.00 | 0.00 | 0.00 | 38 | 1013.8 |
| 20260905223524 | 36 | 167 | 4.8 | 6.4 | 0.00 | 0.00 | 0.00 | 39 | 1014.0 |
| 20260905223020 | 36 | 164 | 4.8 | 6.4 | 0.00 | 0.00 | 0.00 | 39 | 1013.9 |
| 20260905222520 | 36 | 145 | 8.0 | 11.3 | 0.00 | 0.00 | 0.00 | 40 | 1013.9 |
| 20260905222015 | 36 | 172 | 6.4 | 6.4 | 0.00 | 0.00 | 0.00 | 39 | 1014.1 |
| 20260905221511 | 37 | 174 | 4.8 | 4.8 | 0.00 | 0.00 | 0.00 | 39 | 1014.0 |
| 20260905221007 | 37 | 144 | 14.5 | 17.7 | 0.00 | 0.00 | 0.00 | 38 | 1013.9 |